Washington, DC (20001)

5:05 PM EDT on April 25, 2017 (GMT -0400)
Logan Circle | | Change Station

Elev 108 ft 38.91 °N, 77.03 °W | Updated 3 seconds ago

Overcast
Overcast
58.8 °F
Feels Like 58.8 °F
N
2.7
Wind Variable Wind from NE
Gusts 4.9 mph

Today
High -- | Low -- °F
--% Chance of Precip.
Yesterday
High -- | Low -- °F
Precip. -- in
Pressure 29.74 in
Visibility 9.0 miles
Clouds Overcast 800 ft
Dew Point 58 °F
Humidity 98%
Rainfall 0.11 in
Snow Depth Not available.
6:17 AM 7:55 PM
Waning Crescent, 1% visible
METAR KDCA 252052Z 05010KT 9SM OVC008 16/15 A2974 RMK AO2 DZE32 SLP071 P0000 60001 T01560150 55013
Pressure 29.74 in
Visibility 9.0 miles
Clouds Overcast 800 ft
Dew Point 58 °F
Humidity 98%
Rainfall 0.11 in
Snow Depth Not available.
6:17 AM 7:55 PM
Waning Crescent, 1% visible
METAR KDCA 252052Z 05010KT 9SM OVC008 16/15 A2974 RMK AO2 DZE32 SLP071 P0000 60001 T01560150 55013

Get Severe Weather Alerts

Thanks for signing up!

Be on the lookout for a verification email in your inbox.

You'll start receiving the daily forecast at 8 AM.

×

10-Day Weather Forecast

Almanac

Astronomy

Apr. 25, 2017 Rise Set
Actual Time
Civil Twilight
Nautical Twilight
Astronomical Twilight
Moon
Length of Visible Light
Length of Day
Tomorrow will be .
, % of the Moon is Illuminated

Today's Extremes

State Highs State Lows

Community

WunderPhotos

WunderBlog® & News

Nearby

Air Quality

  Air Quality AQ Index Pollutant
Not available.

Snow Depth

Station Depth Elevation

Earthquake Activity

City Distance Mag. Time & Date
Minimum magnitude displayed is 2.5.

Coastal Water Temperatures

Place Temperature

Stations

Nearby Weather Stations

Station Location Temp. Windchill Dew Point Humidity Wind Precip. Elev Updated Type
                   

Watches & Warnings

There are currently no watches in effect.